Time;durP1;ratioP1;P1;durP2;ratioP2;P2;SDS_P1;SDS_P2;PMS_P1;PMS_P2;Temp;Humidity;BMP_temperature;BMP_pressure;BME280_temperature;BME280_humidity;BME280_pressure;Samples;Min_cycle;Max_cycle;Signal;HPM_P1;HPM_P2
2021/04/25 00:01:01;;;;;;;11.63;4.37;;;5.60;99.90;;;;;;5046139;28;20481;-84
2021/04/25 00:10:20;;;;;;;16.93;4.67;;;5.40;99.90;;;;;;5016677;28;20986;-84
2021/04/25 00:13:02;;;;;;;18.57;4.90;;;5.40;99.90;;;;;;5064740;28;20505;-84
2021/04/25 00:15:59;;;;;;;25.50;4.40;;;5.30;99.90;;;;;;5078067;28;20460;-84
2021/04/25 00:18:52;;;;;;;26.37;5.17;;;5.40;99.90;;;;;;5079031;28;20975;-84
2021/04/25 00:21:32;;;;;;;40.20;12.17;;;5.30;99.90;;;;;;5046400;28;20834;-85
2021/04/25 00:24:17;;;;;;;60.57;32.43;;;5.30;99.90;;;;;;5092739;28;20447;-85
2021/04/25 00:27:01;;;;;;;51.37;21.20;;;5.20;99.90;;;;;;5081201;28;20464;-85
2021/04/25 00:33:51;;;;;;;36.57;6.07;;;5.20;99.90;;;;;;5061832;28;20458;-86
2021/04/25 00:36:37;;;;;;;39.47;6.87;;;5.20;99.90;;;;;;5054033;28;20817;-85
2021/04/25 00:39:32;;;;;;;44.30;9.27;;;5.10;99.90;;;;;;5077261;28;20454;-83
2021/04/25 00:42:19;;;;;;;66.73;35.00;;;5.10;99.90;;;;;;5062327;28;20475;-84
2021/04/25 00:45:00;;;;;;;117.07;106.67;;;5.00;99.90;;;;;;5065205;28;20439;-85
2021/04/25 00:47:47;;;;;;;184.20;170.97;;;5.00;99.90;;;;;;5083036;28;20457;-85
2021/04/25 00:50:29;;;;;;;112.90;101.30;;;4.90;99.90;;;;;;5079447;28;20489;-85
2021/04/25 00:56:17;;;;;;;85.60;50.23;;;4.80;99.90;;;;;;5077227;28;20448;-84
2021/04/25 00:59:05;;;;;;;138.17;124.77;;;4.70;99.90;;;;;;5077679;28;20490;-84
2021/04/25 01:02:12;;;;;;;367.60;346.97;;;4.70;99.90;;;;;;5078121;28;20589;-84
2021/04/25 01:04:57;;;;;;;641.17;605.50;;;4.60;99.90;;;;;;5071687;28;20953;-84
2021/04/25 01:07:39;;;;;;;513.20;484.07;;;4.60;99.90;;;;;;5075206;28;20431;-84
2021/04/25 01:10:37;;;;;;;;;;;;;;;;;;;;;
2021/04/25 01:16:38;;;;;;;1999.90;999.90;;;4.40;99.90;;;;;;5022863;28;20507;-85
2021/04/25 01:19:26;;;;;;;1999.90;999.90;;;4.30;99.90;;;;;;5099415;28;20449;-85
2021/04/25 01:22:16;;;;;;;1999.90;999.90;;;4.30;99.90;;;;;;5090657;28;20458;-85
2021/04/25 01:24:56;;;;;;;1999.90;999.90;;;4.20;99.90;;;;;;5075796;28;20459;-85
2021/04/25 01:28:01;;;;;;;1999.90;999.90;;;4.10;99.90;;;;;;5080618;28;20453;-84
2021/04/25 01:31:03;;;;;;;1999.90;999.90;;;4.10;99.90;;;;;;5078389;28;20548;-84
2021/04/25 01:36:57;;;;;;;1999.90;999.90;;;4.00;99.90;;;;;;4918977;29;20571;-85
2021/04/25 01:39:48;;;;;;;1999.90;999.90;;;4.00;99.90;;;;;;5028978;28;20893;-84
2021/04/25 01:46:06;;;;;;;1999.90;999.90;;;3.90;99.90;;;;;;4969395;28;20468;-85
2021/04/25 01:55:16;;;;;;;1999.90;999.90;;;3.90;99.90;;;;;;4999151;28;20438;-85
2021/04/25 01:58:00;;;;;;;1999.90;999.90;;;3.90;99.90;;;;;;5063450;28;20453;-85
2021/04/25 02:00:49;;;;;;;1999.90;999.90;;;3.90;99.90;;;;;;5065381;28;20534;-84
2021/04/25 02:03:47;;;;;;;1999.90;999.90;;;3.90;99.90;;;;;;5067574;28;20455;-84
2021/04/25 02:06:26;;;;;;;1999.90;999.90;;;3.90;99.90;;;;;;5060077;28;20447;-84
2021/04/25 02:12:03;;;;;;;1999.90;999.90;;;4.00;99.90;;;;;;5079510;28;20481;-84
2021/04/25 02:14:35;;;;;;;1999.90;999.90;;;4.10;99.90;;;;;;5071268;28;20453;-84
2021/04/25 02:17:18;;;;;;;1999.90;999.90;;;4.20;99.90;;;;;;5065985;28;20474;-83
2021/04/25 02:20:00;;;;;;;1999.90;999.90;;;4.30;99.90;;;;;;5077915;28;20465;-84
2021/04/25 02:22:36;;;;;;;1999.90;999.90;;;4.30;99.90;;;;;;5060416;28;20479;-84
2021/04/25 02:25:23;;;;;;;1999.90;999.90;;;4.40;99.90;;;;;;5060639;28;20622;-84
2021/04/25 02:28:02;;;;;;;1999.90;999.90;;;4.60;99.90;;;;;;5068852;28;20437;-85
2021/04/25 02:30:38;;;;;;;1999.90;999.90;;;4.70;99.90;;;;;;5080640;28;20448;-85
2021/04/25 02:33:11;;;;;;;1999.90;999.90;;;4.70;99.90;;;;;;5079994;28;20452;-84
2021/04/25 02:36:00;;;;;;;1999.90;999.90;;;4.80;99.90;;;;;;5080824;28;20884;-85
2021/04/25 02:38:38;;;;;;;1999.90;999.90;;;4.90;99.90;;;;;;5069943;28;21021;-84
2021/04/25 02:41:29;;;;;;;1999.90;999.90;;;5.00;99.90;;;;;;5067616;28;20487;-84
2021/04/25 02:44:06;;;;;;;1999.90;999.90;;;5.10;99.90;;;;;;5065183;28;20476;-84
2021/04/25 02:49:39;;;;;;;1999.90;999.90;;;5.10;99.90;;;;;;5073128;28;20478;-84
2021/04/25 02:52:17;;;;;;;1999.90;999.90;;;5.10;99.90;;;;;;5078419;28;20451;-84
2021/04/25 02:54:46;;;;;;;1999.90;999.90;;;5.00;99.90;;;;;;5072436;28;20453;-85
2021/04/25 02:57:26;;;;;;;1999.90;999.90;;;5.10;99.90;;;;;;5071543;28;20462;-85
2021/04/25 03:00:16;;;;;;;1999.90;999.90;;;5.10;99.90;;;;;;5073551;28;20448;-83
2021/04/25 03:03:26;;;;;;;1999.90;999.90;;;5.00;99.90;;;;;;5077822;28;20537;-83
2021/04/25 03:06:38;;;;;;;;;;;;;;;;;;;;;
2021/04/25 03:12:02;;;;;;;1999.90;999.90;;;5.10;99.90;;;;;;5060249;28;20788;-83
2021/04/25 03:14:43;;;;;;;1999.90;999.90;;;5.10;99.90;;;;;;5074698;28;20459;-83
2021/04/25 03:17:26;;;;;;;1999.90;999.90;;;5.00;99.90;;;;;;5071784;28;21566;-84
2021/04/25 03:20:10;;;;;;;1999.90;999.90;;;5.00;99.90;;;;;;5055565;28;20454;-83
2021/04/25 03:28:30;;;;;;;1999.90;999.90;;;5.00;99.90;;;;;;5070242;28;20827;-84
2021/04/25 03:40:22;;;;;;;1999.90;999.90;;;5.00;99.90;;;;;;5060975;28;20486;-84
2021/04/25 03:43:12;;;;;;;1999.90;999.90;;;5.10;99.90;;;;;;5076056;28;20549;-83
2021/04/25 03:45:49;;;;;;;1999.90;999.90;;;5.10;99.90;;;;;;5079739;28;20431;-84
2021/04/25 03:48:18;;;;;;;1999.90;999.90;;;5.10;99.90;;;;;;5079747;28;20435;-84
2021/04/25 03:50:58;;;;;;;1999.90;999.90;;;5.20;99.90;;;;;;5074911;28;20473;-84
2021/04/25 03:53:50;;;;;;;1999.90;999.90;;;5.20;99.90;;;;;;5075565;28;20456;-84
2021/04/25 03:56:29;;;;;;;;;;;;;;;;;;;;;
2021/04/25 03:59:06;;;;;;;1999.90;999.90;;;5.20;99.90;;;;;;5081343;28;20427;-84
2021/04/25 04:01:35;;;;;;;1999.90;999.90;;;5.20;99.90;;;;;;5091764;28;20499;-83
2021/04/25 04:04:04;;;;;;;1999.90;999.90;;;5.30;99.90;;;;;;5071341;28;20901;-83
2021/04/25 04:07:10;;;;;;;1999.90;999.90;;;5.30;99.90;;;;;;5084796;28;20449;-84
2021/04/25 04:12:26;;;;;;;1999.90;999.90;;;5.40;99.90;;;;;;5058910;28;20808;-84
2021/04/25 04:14:54;;;;;;;1999.90;999.90;;;5.40;99.90;;;;;;5089315;28;20488;-85
2021/04/25 04:17:23;;;;;;;1999.90;999.90;;;5.40;99.90;;;;;;5081966;28;20447;-85
2021/04/25 04:19:52;;;;;;;1999.90;999.90;;;5.40;99.90;;;;;;5081079;28;20838;-85
2021/04/25 04:22:22;;;;;;;1999.90;999.90;;;5.40;99.90;;;;;;5081544;28;20473;-86
2021/04/25 04:25:04;;;;;;;1999.90;999.90;;;5.40;99.90;;;;;;5080822;28;20516;-83
2021/04/25 04:27:36;;;;;;;1999.90;999.90;;;5.50;99.90;;;;;;5081021;28;20457;-83
2021/04/25 04:30:30;;;;;;;1999.90;999.90;;;5.40;99.90;;;;;;5079787;28;20472;-82
2021/04/25 04:33:04;;;;;;;1999.90;999.90;;;5.40;99.90;;;;;;5080832;28;20475;-83
2021/04/25 04:35:44;;;;;;;1999.90;999.90;;;5.30;99.90;;;;;;5079775;28;20470;-84
2021/04/25 04:38:12;;;;;;;1999.90;999.90;;;5.30;99.90;;;;;;5058636;28;20951;-85
2021/04/25 04:40:38;;;;;;;1999.90;999.90;;;5.30;99.90;;;;;;5074251;28;20450;-84
2021/04/25 04:43:04;;;;;;;1999.90;999.90;;;5.30;99.90;;;;;;5076828;28;20484;-84
2021/04/25 04:45:31;;;;;;;1999.90;999.90;;;5.40;99.90;;;;;;5078384;28;20848;-84
2021/04/25 04:47:57;;;;;;;1999.90;999.90;;;5.40;99.90;;;;;;5077753;28;20451;-84
2021/04/25 04:50:25;;;;;;;1999.90;999.90;;;5.30;99.90;;;;;;5078776;28;20562;-84
2021/04/25 04:52:51;;;;;;;1999.90;999.90;;;5.40;99.90;;;;;;5078332;28;20414;-84
2021/04/25 04:55:21;;;;;;;1999.90;999.90;;;5.50;99.90;;;;;;5077984;28;20484;-84
2021/04/25 04:57:47;;;;;;;1999.90;999.90;;;5.40;99.90;;;;;;5079053;28;20478;-84
2021/04/25 05:00:14;;;;;;;1999.90;999.90;;;5.50;99.90;;;;;;5075804;28;20453;-84
2021/04/25 05:02:41;;;;;;;1999.90;999.90;;;5.50;99.90;;;;;;5066061;28;20493;-84
2021/04/25 05:05:12;;;;;;;1999.90;999.90;;;5.60;99.90;;;;;;5077571;28;20474;-84
2021/04/25 05:07:39;;;;;;;1999.90;999.90;;;5.60;99.90;;;;;;5075617;28;20453;-84
2021/04/25 05:10:06;;;;;;;1999.90;999.90;;;5.60;99.90;;;;;;5077114;28;20520;-83
2021/04/25 05:12:34;;;;;;;1999.90;999.90;;;5.60;99.90;;;;;;5076464;28;20794;-83
2021/04/25 05:15:00;;;;;;;1999.90;999.90;;;5.70;99.90;;;;;;5076290;28;21030;-84
2021/04/25 05:17:26;;;;;;;1999.90;999.90;;;5.80;99.90;;;;;;5075798;28;20451;-83
2021/04/25 05:19:53;;;;;;;1999.90;999.90;;;5.90;99.90;;;;;;5090738;28;20474;-83
2021/04/25 05:22:20;;;;;;;1999.90;999.90;;;6.00;99.90;;;;;;5073846;28;20482;-82
2021/04/25 05:24:46;;;;;;;1999.90;999.90;;;6.00;99.90;;;;;;5075659;28;20462;-83
2021/04/25 05:27:12;;;;;;;1999.90;999.90;;;6.20;99.90;;;;;;5075021;28;20550;-83
2021/04/25 05:32:18;;;;;;;1999.90;999.90;;;6.40;99.90;;;;;;5112196;28;20530;-80
2021/04/25 05:34:45;;;;;;;1999.90;999.90;;;6.40;99.90;;;;;;5118775;28;20514;-83
2021/04/25 05:37:11;;;;;;;1999.90;999.90;;;6.40;99.90;;;;;;5100485;28;20526;-81
2021/04/25 05:39:38;;;;;;;1999.90;999.90;;;6.50;99.90;;;;;;5099893;28;20449;-82
2021/04/25 05:42:05;;;;;;;1999.90;999.90;;;6.50;99.90;;;;;;5079724;28;20486;-83
2021/04/25 05:44:31;;;;;;;1999.90;999.90;;;6.30;99.90;;;;;;5078742;28;20460;-84
2021/04/25 05:46:58;;;;;;;1999.90;999.90;;;6.40;99.90;;;;;;5080063;28;20445;-83
2021/04/25 05:49:25;;;;;;;1999.90;999.90;;;6.60;99.90;;;;;;5078944;28;20466;-85
2021/04/25 05:51:52;;;;;;;1999.90;999.90;;;6.70;99.90;;;;;;5084505;28;20459;-86
2021/04/25 05:54:18;;;;;;;1999.90;999.90;;;6.90;99.90;;;;;;5083362;28;20447;-86
2021/04/25 05:56:44;;;;;;;1999.90;999.90;;;7.00;99.90;;;;;;5084325;28;21008;-87
2021/04/25 05:59:13;;;;;;;1999.90;999.90;;;6.90;99.90;;;;;;5083986;28;20451;-85
2021/04/25 06:01:40;;;;;;;1999.90;999.90;;;6.90;99.90;;;;;;5135456;22;20490;-87
2021/04/25 06:04:06;;;;;;;1999.90;999.90;;;6.90;99.90;;;;;;5086279;28;20446;-87
2021/04/25 06:06:34;;;;;;;1999.90;999.90;;;6.80;99.90;;;;;;5089934;28;20513;-84
2021/04/25 06:09:00;;;;;;;1999.90;999.90;;;6.90;99.90;;;;;;5085912;28;20439;-86
2021/04/25 06:11:27;;;;;;;1999.90;999.90;;;6.90;99.90;;;;;;5097514;28;20523;-86
2021/04/25 06:13:53;;;;;;;1999.90;999.90;;;7.00;99.90;;;;;;5103734;28;20454;-85
2021/04/25 06:16:20;;;;;;;1999.90;999.90;;;7.10;99.90;;;;;;5102774;28;20442;-87
2021/04/25 06:18:46;;;;;;;1999.90;999.90;;;7.10;99.90;;;;;;5104150;28;20469;-87
2021/04/25 06:21:13;;;;;;;726.60;683.83;;;7.20;99.90;;;;;;5099223;28;20511;-86
2021/04/25 06:23:40;;;;;;;376.90;354.27;;;7.30;99.90;;;;;;5102317;28;20477;-85
2021/04/25 06:26:07;;;;;;;329.90;310.37;;;7.30;99.90;;;;;;5103411;28;20451;-86
2021/04/25 06:28:35;;;;;;;210.00;196.37;;;7.40;99.90;;;;;;5100275;28;20454;-83
2021/04/25 06:31:01;;;;;;;18.57;3.43;;;7.40;99.90;;;;;;5114873;28;20491;-83
2021/04/25 06:33:28;;;;;;;16.40;3.33;;;7.50;99.90;;;;;;5116026;28;20469;-83
2021/04/25 06:35:54;;;;;;;14.27;3.00;;;7.60;99.90;;;;;;5111422;28;20498;-86
2021/04/25 06:38:20;;;;;;;14.10;3.43;;;7.60;99.90;;;;;;5103086;28;20544;-85
2021/04/25 06:40:49;;;;;;;16.10;4.50;;;7.70;99.90;;;;;;5097869;28;20473;-84
2021/04/25 06:43:16;;;;;;;11.53;3.70;;;7.60;99.90;;;;;;5102389;28;20993;-86
2021/04/25 06:45:42;;;;;;;23.47;13.17;;;7.60;99.90;;;;;;5101872;28;20458;-85
2021/04/25 06:48:09;;;;;;;15.60;4.30;;;7.50;99.90;;;;;;5104364;28;20454;-84
2021/04/25 06:50:35;;;;;;;9.60;3.10;;;7.20;99.90;;;;;;5102291;28;20549;-84
2021/04/25 06:53:02;;;;;;;11.97;3.93;;;7.30;99.90;;;;;;5097638;28;20591;-84
2021/04/25 06:55:28;;;;;;;11.33;3.73;;;7.30;99.90;;;;;;5093282;28;20867;-85
2021/04/25 06:57:56;;;;;;;13.47;3.97;;;7.40;99.90;;;;;;5095195;28;20476;-83
2021/04/25 07:00:25;;;;;;;9.20;3.13;;;7.50;99.90;;;;;;5086691;28;20473;-82
2021/04/25 07:02:54;;;;;;;12.00;3.27;;;7.60;99.90;;;;;;5095651;28;20851;-82
2021/04/25 07:05:20;;;;;;;11.53;3.77;;;7.50;99.90;;;;;;5096384;28;20438;-82
2021/04/25 07:07:47;;;;;;;9.80;3.33;;;7.50;99.90;;;;;;5091179;28;20454;-82
2021/04/25 07:10:13;;;;;;;10.17;3.50;;;7.50;99.90;;;;;;5095258;28;20482;-83
2021/04/25 07:12:39;;;;;;;10.00;3.00;;;7.50;99.90;;;;;;5094693;28;20454;-83
2021/04/25 07:15:09;;;;;;;10.87;3.13;;;7.50;99.90;;;;;;5089213;28;20879;-82
2021/04/25 07:17:35;;;;;;;8.93;2.70;;;7.50;99.90;;;;;;5094472;28;21134;-78
2021/04/25 07:20:02;;;;;;;8.97;2.50;;;7.70;99.90;;;;;;5095056;28;20473;-82
2021/04/25 07:22:28;;;;;;;10.60;2.50;;;7.80;99.90;;;;;;5093488;28;20477;-82
2021/04/25 07:24:54;;;;;;;10.80;3.30;;;8.00;99.90;;;;;;5094613;28;20454;-81
2021/04/25 07:27:21;;;;;;;12.10;3.30;;;8.40;99.90;;;;;;5093784;28;20460;-82
2021/04/25 07:29:48;;;;;;;10.40;2.70;;;8.40;99.90;;;;;;5093868;28;20537;-80
2021/04/25 07:32:16;;;;;;;12.80;3.00;;;8.30;99.90;;;;;;5093571;28;20446;-81
2021/04/25 07:34:42;;;;;;;9.40;2.50;;;8.40;99.90;;;;;;5095188;28;20952;-81
2021/04/25 07:37:09;;;;;;;8.10;2.30;;;8.50;99.90;;;;;;5093311;28;20856;-82
2021/04/25 07:39:37;;;;;;;8.70;2.47;;;8.70;99.90;;;;;;5093686;28;20473;-81
2021/04/25 07:42:05;;;;;;;8.33;2.77;;;8.90;99.90;;;;;;5096592;28;20489;-82
2021/04/25 07:44:31;;;;;;;10.00;3.00;;;8.90;99.90;;;;;;5101177;28;20488;-82
2021/04/25 07:46:57;;;;;;;7.40;2.40;;;9.40;99.90;;;;;;5090930;28;20450;-82
2021/04/25 07:49:25;;;;;;;8.40;2.40;;;9.60;99.90;;;;;;5097535;28;20442;-82
2021/04/25 07:51:51;;;;;;;10.77;3.00;;;9.90;99.90;;;;;;5097472;28;20482;-82
2021/04/25 07:54:18;;;;;;;8.73;2.93;;;10.30;99.90;;;;;;5103579;28;20446;-82
2021/04/25 07:56:44;;;;;;;8.60;2.77;;;10.70;99.90;;;;;;5101709;28;20459;-83
2021/04/25 07:59:11;;;;;;;8.20;2.80;;;11.00;99.90;;;;;;5102114;28;20462;-82
2021/04/25 08:01:37;;;;;;;11.20;2.27;;;11.60;99.90;;;;;;5104320;28;20492;-83
2021/04/25 08:04:04;;;;;;;9.03;2.37;;;11.50;99.90;;;;;;5099785;28;20452;-82
2021/04/25 08:06:31;;;;;;;8.40;2.33;;;11.20;99.90;;;;;;5099106;28;20545;-83
2021/04/25 08:08:57;;;;;;;7.87;2.67;;;11.30;99.90;;;;;;5098854;28;20454;-82
2021/04/25 08:11:24;;;;;;;8.57;3.00;;;11.00;99.90;;;;;;5098500;28;20497;-82
2021/04/25 08:13:50;;;;;;;7.20;2.50;;;11.10;99.90;;;;;;5098365;28;20454;-82
2021/04/25 08:16:16;;;;;;;6.47;2.33;;;11.00;99.90;;;;;;5102073;28;20446;-82
2021/04/25 08:18:43;;;;;;;7.13;2.33;;;11.00;99.90;;;;;;5101263;28;20445;-83
2021/04/25 08:21:09;;;;;;;10.00;3.40;;;10.70;99.90;;;;;;5098827;28;20513;-81
2021/04/25 08:23:37;;;;;;;9.13;2.50;;;10.40;99.90;;;;;;5098479;28;20536;-82
2021/04/25 08:26:04;;;;;;;7.50;2.33;;;10.10;99.90;;;;;;5099492;28;20513;-82
2021/04/25 08:28:31;;;;;;;8.33;2.33;;;9.80;99.90;;;;;;5089255;28;20546;-83
2021/04/25 08:30:57;;;;;;;8.50;2.63;;;9.70;99.90;;;;;;5091415;28;20556;-83
2021/04/25 08:33:24;;;;;;;7.73;2.67;;;9.50;99.90;;;;;;5093752;28;20443;-82
2021/04/25 08:35:50;;;;;;;7.40;2.37;;;9.40;99.90;;;;;;5105565;28;20513;-82
2021/04/25 08:38:17;;;;;;;8.17;2.70;;;9.40;99.90;;;;;;5118654;28;20869;-83
2021/04/25 08:40:46;;;;;;;12.00;3.33;;;9.50;99.90;;;;;;5105311;28;20496;-83
2021/04/25 08:43:13;;;;;;;7.70;2.33;;;9.80;99.90;;;;;;5098182;28;20486;-84
2021/04/25 08:45:41;;;;;;;6.50;1.83;;;11.80;99.90;;;;;;5095770;28;20530;-83
2021/04/25 08:48:11;;;;;;;10.20;2.33;;;14.20;99.90;;;;;;5098706;28;20446;-83
2021/04/25 08:50:38;;;;;;;7.93;2.47;;;15.90;99.90;;;;;;5097611;28;20466;-81
2021/04/25 08:53:04;;;;;;;6.80;2.00;;;16.80;97.90;;;;;;5096261;28;20521;-82
2021/04/25 08:55:31;;;;;;;8.07;2.97;;;18.50;94.10;;;;;;5101771;28;20459;-83
2021/04/25 08:57:59;;;;;;;6.00;1.67;;;18.90;89.00;;;;;;5102860;28;20450;-83
2021/04/25 09:00:28;;;;;;;8.10;2.23;;;19.90;81.80;;;;;;5095381;28;20485;-83
2021/04/25 09:02:54;;;;;;;8.17;2.47;;;19.50;76.00;;;;;;5100417;28;20496;-83
2021/04/25 09:05:21;;;;;;;7.93;2.20;;;17.20;74.10;;;;;;5094756;28;20482;-81
2021/04/25 09:07:55;;;;;;;7.07;1.63;;;15.60;74.50;;;;;;5087752;28;20465;-79
2021/04/25 09:10:32;;;;;;;6.70;2.23;;;15.00;76.50;;;;;;5105212;28;20472;-83
2021/04/25 09:13:00;;;;;;;4.87;1.80;;;14.30;77.30;;;;;;5107365;28;20452;-82
2021/04/25 09:15:34;;;;;;;8.10;1.60;;;16.40;83.30;;;;;;5098306;28;20442;-80
2021/04/25 09:18:02;;;;;;;8.70;1.83;;;18.00;78.60;;;;;;5094518;28;20458;-82
2021/04/25 09:20:35;;;;;;;5.20;1.30;;;19.70;73.70;;;;;;5093225;28;20478;-82
2021/04/25 09:23:02;;;;;;;7.93;2.23;;;20.30;68.70;;;;;;5094123;28;20476;-81
2021/04/25 09:25:29;;;;;;;5.90;2.20;;;20.00;64.40;;;;;;5092255;28;20462;-79
2021/04/25 09:28:16;;;;;;;5.63;2.00;;;17.90;66.30;;;;;;5077046;28;20457;-78
2021/04/25 09:30:59;;;;;;;10.87;2.10;;;17.00;68.30;;;;;;5094858;28;20501;-82
2021/04/25 09:33:28;;;;;;;11.43;2.47;;;16.90;69.80;;;;;;5092814;28;21003;-81
2021/04/25 09:35:56;;;;;;;7.70;2.00;;;16.20;68.20;;;;;;5106288;28;20460;-82
2021/04/25 09:38:33;;;;;;;8.27;1.90;;;16.00;73.60;;;;;;5118152;28;20505;-78
2021/04/25 09:40:59;;;;;;;5.67;1.60;;;15.70;70.60;;;;;;5118876;28;20983;-81
2021/04/25 09:43:26;;;;;;;7.33;1.97;;;15.40;70.30;;;;;;5101918;28;20519;-82
2021/04/25 09:45:54;;;;;;;6.03;1.83;;;14.60;70.70;;;;;;5105950;28;20501;-82
2021/04/25 09:48:26;;;;;;;6.73;2.20;;;14.30;72.60;;;;;;5117249;28;20881;-82
2021/04/25 09:51:11;;;;;;;6.23;1.80;;;13.70;74.00;;;;;;5100803;28;20497;-83
2021/04/25 09:53:39;;;;;;;6.80;2.33;;;13.70;75.60;;;;;;5096321;28;20455;-82
2021/04/25 09:56:06;;;;;;;5.33;1.70;;;14.50;77.90;;;;;;5090567;28;20957;-81
2021/04/25 09:58:34;;;;;;;8.67;2.20;;;16.50;82.10;;;;;;5089449;28;20450;-82
2021/04/25 10:01:04;;;;;;;10.30;2.60;;;18.00;77.30;;;;;;5101623;28;20504;-78
2021/04/25 10:03:35;;;;;;;5.53;1.83;;;18.40;72.10;;;;;;5091882;28;20572;-77
2021/04/25 10:06:04;;;;;;;6.47;1.93;;;18.30;68.10;;;;;;5106365;28;20441;-84
2021/04/25 10:08:34;;;;;;;7.13;1.77;;;17.70;68.80;;;;;;5091304;28;21019;-78
2021/04/25 10:11:02;;;;;;;5.50;1.57;;;17.40;68.00;;;;;;5090249;28;20466;-84
2021/04/25 10:13:39;;;;;;;;;;;;;;;;;;;;;
2021/04/25 10:16:08;;;;;;;8.60;2.83;;;16.10;69.90;;;;;;5087941;28;20759;-82
2021/04/25 10:18:44;;;;;;;9.00;2.40;;;15.80;72.20;;;;;;5106065;28;20482;-81
2021/04/25 10:21:13;;;;;;;6.50;1.70;;;17.40;74.70;;;;;;5093598;28;20504;-79
2021/04/25 10:23:42;;;;;;;5.63;1.90;;;17.70;71.00;;;;;;5107642;28;20491;-81
2021/04/25 10:26:10;;;;;;;5.70;1.77;;;17.90;70.50;;;;;;5115402;28;20449;-81
2021/04/25 10:28:49;;;;;;;5.27;1.83;;;18.70;67.90;;;;;;5089378;28;20450;-82
2021/04/25 10:31:20;;;;;;;6.60;2.03;;;19.10;67.20;;;;;;5095437;28;20499;-78
2021/04/25 10:33:54;;;;;;;9.93;2.42;;;16.70;64.40;;;;;;5092082;28;20954;-80
2021/04/25 10:36:33;;;;;;;7.37;2.20;;;16.70;68.00;;;;;;5093086;28;20290;-81
2021/04/25 10:39:00;;;;;;;8.90;2.50;;;18.40;71.50;;;;;;5095139;28;20458;-80
2021/04/25 10:41:29;;;;;;;7.50;2.10;;;20.80;67.50;;;;;;5084732;28;20466;-80
2021/04/25 10:43:59;;;;;;;7.87;1.90;;;22.10;67.40;;;;;;5087716;28;20521;-84
2021/04/25 10:46:27;;;;;;;9.63;1.90;;;24.20;59.10;;;;;;5086398;28;20488;-83
2021/04/25 10:49:31;;;;;;;7.00;2.10;;;25.60;57.60;;;;;;5070819;28;20454;-84
2021/04/25 10:52:22;;;;;;;6.10;1.70;;;25.30;53.50;;;;;;5088647;28;20455;-83
2021/04/25 10:55:28;;;;;;;8.70;2.20;;;24.40;53.20;;;;;;5092345;28;20450;-84
2021/04/25 10:58:21;;;;;;;7.67;2.20;;;26.80;51.40;;;;;;5084218;28;20504;-84
2021/04/25 11:00:47;;;;;;;7.47;2.00;;;28.00;49.80;;;;;;5094413;28;20468;-82
2021/04/25 11:03:31;;;;;;;6.57;1.63;;;27.20;50.00;;;;;;5085784;28;20486;-83
2021/04/25 11:05:58;;;;;;;9.50;2.50;;;27.70;47.60;;;;;;5097832;28;20464;-83
2021/04/25 11:08:42;;;;;;;5.83;2.33;;;25.50;47.20;;;;;;5102374;28;20528;-85
2021/04/25 11:11:13;;;;;;;6.20;1.70;;;23.80;46.50;;;;;;5092059;28;20470;-84
2021/04/25 11:13:44;;;;;;;5.53;2.13;;;22.10;47.10;;;;;;5078137;28;20447;-85
2021/04/25 11:16:28;;;;;;;6.93;1.60;;;23.10;48.80;;;;;;5088849;28;20974;-84
2021/04/25 11:19:00;;;;;;;8.37;2.10;;;24.80;49.10;;;;;;5095342;28;21101;-88
2021/04/25 11:21:52;;;;;;;8.80;1.87;;;26.00;48.00;;;;;;5093843;28;20462;-85
2021/04/25 11:24:36;;;;;;;7.03;1.57;;;26.90;46.90;;;;;;5096346;28;20445;-84
2021/04/25 11:27:05;;;;;;;6.90;1.90;;;27.00;45.00;;;;;;5114211;28;20453;-84
2021/04/25 11:29:53;;;;;;;10.77;1.80;;;27.60;45.60;;;;;;5109729;28;20456;-84
2021/04/25 11:32:25;;;;;;;7.40;1.80;;;28.30;44.80;;;;;;5142604;22;20535;-83
2021/04/25 11:35:13;;;;;;;8.87;2.23;;;26.80;43.30;;;;;;5128286;27;20520;-82
2021/04/25 11:37:41;;;;;;;8.30;2.67;;;25.80;43.70;;;;;;5125015;27;20451;-82
2021/04/25 11:40:10;;;;;;;7.43;1.90;;;26.50;45.60;;;;;;5124912;28;20479;-82
2021/04/25 11:42:44;;;;;;;7.97;2.07;;;26.70;44.10;;;;;;5146237;27;20574;-80
2021/04/25 11:45:13;;;;;;;6.83;2.30;;;26.70;43.60;;;;;;5151679;27;20464;-83
2021/04/25 11:47:46;;;;;;;7.40;1.93;;;28.20;43.90;;;;;;5146771;27;20868;-79
2021/04/25 11:50:17;;;;;;;7.63;2.50;;;27.10;43.90;;;;;;5145614;27;20447;-81
2021/04/25 11:52:45;;;;;;;8.67;1.90;;;28.00;42.60;;;;;;5147473;27;20456;-82
2021/04/25 11:55:15;;;;;;;6.00;1.83;;;28.90;45.00;;;;;;5147371;27;21010;-81
2021/04/25 11:57:46;;;;;;;6.30;2.53;;;30.20;44.60;;;;;;5140004;27;20517;-82
2021/04/25 12:00:15;;;;;;;10.50;2.00;;;31.00;43.90;;;;;;5144361;27;20469;-82
2021/04/25 12:02:49;;;;;;;5.90;1.77;;;30.30;40.00;;;;;;5127584;27;20563;-82
2021/04/25 12:05:19;;;;;;;8.80;2.33;;;29.00;40.30;;;;;;5139433;27;20520;-83
2021/04/25 12:07:48;;;;;;;7.57;2.80;;;28.70;40.80;;;;;;5145512;27;20473;-83
2021/04/25 12:10:24;;;;;;;7.53;2.00;;;27.70;41.40;;;;;;5128837;27;20451;-84
2021/04/25 12:13:13;;;;;;;7.87;1.97;;;26.20;42.70;;;;;;5136317;27;21037;-84
2021/04/25 12:15:49;;;;;;;7.10;2.20;;;26.60;43.20;;;;;;5126317;28;20430;-83
2021/04/25 12:18:17;;;;;;;7.67;2.23;;;27.80;41.30;;;;;;5140058;27;20489;-83
2021/04/25 12:20:45;;;;;;;6.70;2.30;;;28.70;44.00;;;;;;5131089;27;20496;-85
2021/04/25 12:23:14;;;;;;;6.80;2.03;;;29.60;44.20;;;;;;5139161;27;20479;-82
2021/04/25 12:25:41;;;;;;;7.10;2.67;;;30.30;39.60;;;;;;5148050;27;20439;-82
2021/04/25 12:28:08;;;;;;;14.33;2.20;;;29.90;41.60;;;;;;5133494;27;20540;-83
2021/04/25 12:30:35;;;;;;;6.63;2.00;;;30.50;40.20;;;;;;5143195;27;20448;-81
2021/04/25 12:33:09;;;;;;;6.77;2.23;;;30.30;39.60;;;;;;5128756;27;20519;-83
2021/04/25 12:35:43;;;;;;;7.77;1.80;;;29.90;38.80;;;;;;5132700;27;20443;-82
2021/04/25 12:38:29;;;;;;;7.77;2.50;;;27.70;38.80;;;;;;5129837;27;20486;-84
2021/04/25 12:40:59;;;;;;;8.30;2.40;;;26.70;39.40;;;;;;5112997;27;20471;-84
2021/04/25 12:43:26;;;;;;;6.60;2.03;;;27.60;41.70;;;;;;5131706;27;20487;-83
2021/04/25 12:45:54;;;;;;;6.27;2.10;;;29.70;41.70;;;;;;5131858;27;20449;-83
2021/04/25 12:48:39;;;;;;;6.70;2.10;;;31.00;42.20;;;;;;5120446;27;20440;-83
2021/04/25 12:51:19;;;;;;;5.80;2.00;;;30.60;41.00;;;;;;5136639;27;20999;-83
2021/04/25 12:54:06;;;;;;;6.77;2.43;;;31.40;40.40;;;;;;5128947;27;20452;-82
2021/04/25 12:56:35;;;;;;;7.23;2.57;;;32.40;38.40;;;;;;5130912;27;20440;-84
2021/04/25 12:59:14;;;;;;;7.20;2.20;;;30.40;37.40;;;;;;5135064;27;20441;-84
2021/04/25 13:01:43;;;;;;;7.23;2.37;;;28.30;38.70;;;;;;5121435;28;20479;-83
2021/04/25 13:04:23;;;;;;;6.40;2.23;;;30.10;39.70;;;;;;5123996;28;20453;-83
2021/04/25 13:06:50;;;;;;;6.87;2.03;;;31.60;40.20;;;;;;5114000;28;20478;-84
2021/04/25 13:09:17;;;;;;;7.83;2.07;;;32.10;37.00;;;;;;5120853;27;20445;-84
2021/04/25 13:11:44;;;;;;;7.03;2.30;;;30.10;36.30;;;;;;5133648;27;20576;-81
2021/04/25 13:14:14;;;;;;;8.03;2.20;;;28.90;39.50;;;;;;5116171;27;20861;-83
2021/04/25 13:16:51;;;;;;;7.20;2.50;;;30.20;42.20;;;;;;5143091;27;20475;-83
2021/04/25 13:19:30;;;;;;;6.43;2.20;;;30.60;38.30;;;;;;5151080;27;20448;-83
2021/04/25 13:21:56;;;;;;;7.20;2.37;;;29.70;39.20;;;;;;5149987;27;20571;-83
2021/04/25 13:24:24;;;;;;;9.00;2.10;;;30.00;38.70;;;;;;5148513;27;20444;-84
2021/04/25 13:26:51;;;;;;;7.13;2.13;;;29.70;40.50;;;;;;5126023;27;20441;-82
2021/04/25 13:29:19;;;;;;;6.97;2.00;;;29.40;38.70;;;;;;5129615;27;20445;-82
2021/04/25 13:31:47;;;;;;;7.13;1.93;;;30.90;37.90;;;;;;5136607;27;20566;-84
2021/04/25 13:34:18;;;;;;;8.90;2.37;;;31.50;39.00;;;;;;5152894;27;20811;-83
2021/04/25 13:36:45;;;;;;;7.50;2.30;;;31.20;38.20;;;;;;5144955;27;20592;-85
2021/04/25 13:39:13;;;;;;;7.63;2.03;;;28.90;37.20;;;;;;5142511;27;20493;-83
2021/04/25 13:41:42;;;;;;;6.70;2.50;;;29.60;40.70;;;;;;5142460;27;20479;-83
2021/04/25 13:44:10;;;;;;;5.90;2.20;;;27.20;36.90;;;;;;5134649;27;20971;-82
2021/04/25 13:46:37;;;;;;;6.47;2.10;;;28.00;38.60;;;;;;5140686;27;20441;-82
2021/04/25 13:49:05;;;;;;;7.17;2.33;;;28.50;38.10;;;;;;5141069;27;21104;-83
2021/04/25 13:51:32;;;;;;;7.87;2.10;;;29.10;40.00;;;;;;5132945;27;20468;-82
2021/04/25 13:53:59;;;;;;;10.03;3.87;;;30.50;38.80;;;;;;5121075;28;20450;-83
2021/04/25 13:56:26;;;;;;;7.67;2.53;;;31.20;40.20;;;;;;5128961;27;20502;-83
2021/04/25 13:58:57;;;;;;;7.50;2.43;;;29.90;36.60;;;;;;5139565;27;20469;-82
2021/04/25 14:01:25;;;;;;;7.13;2.23;;;28.80;38.60;;;;;;5129872;27;20493;-83
2021/04/25 14:03:53;;;;;;;6.30;2.30;;;29.40;37.90;;;;;;5132612;27;20479;-82
2021/04/25 14:06:20;;;;;;;9.20;2.80;;;28.00;37.90;;;;;;5124351;27;20817;-83
2021/04/25 14:08:47;;;;;;;6.33;2.13;;;27.60;37.60;;;;;;5120611;28;20460;-83